createdAt,value
2017-06-09T00:00:56.903Z,0
2017-06-09T00:10:56.889Z,0
2017-06-09T00:20:56.854Z,0
2017-06-09T00:30:56.873Z,0
2017-06-09T00:40:56.843Z,0
2017-06-09T00:50:56.913Z,0
2017-06-09T01:00:56.871Z,0
2017-06-09T01:10:56.827Z,0
2017-06-09T01:20:56.912Z,0
2017-06-09T01:30:56.874Z,0
2017-06-09T01:40:56.923Z,0
2017-06-09T01:50:56.861Z,0
2017-06-09T02:00:56.857Z,0
2017-06-09T02:10:56.892Z,0
2017-06-09T02:20:56.874Z,4
2017-06-09T02:30:56.973Z,4
2017-06-09T02:40:56.921Z,12
2017-06-09T02:50:56.858Z,44
2017-06-09T03:00:56.916Z,112
2017-06-09T03:10:56.864Z,180
2017-06-09T03:20:56.829Z,296
2017-06-09T03:30:56.941Z,520
2017-06-09T03:40:56.870Z,816
2017-06-09T03:50:56.947Z,1812
2017-06-09T04:00:57.043Z,2784
2017-06-09T04:10:56.893Z,3556
2017-06-09T04:20:56.904Z,3712
2017-06-09T04:30:56.897Z,6412
2017-06-09T04:40:56.841Z,10848
2017-06-09T04:50:56.919Z,7428
2017-06-09T05:00:56.843Z,7220
2017-06-09T05:10:56.928Z,7000
2017-06-09T05:20:56.895Z,11920
2017-06-09T05:30:56.979Z,12076
2017-06-09T05:40:56.910Z,6436
2017-06-09T05:50:56.875Z,9712
2017-06-09T06:00:56.957Z,6600
2017-06-09T06:10:56.954Z,7232
2017-06-09T06:20:56.965Z,10768
2017-06-09T06:30:56.899Z,7380
2017-06-09T06:40:56.932Z,13624
2017-06-09T06:50:56.926Z,5880
2017-06-09T07:00:56.829Z,4764
2017-06-09T07:10:56.840Z,9524
2017-06-09T07:21:06.309Z,26528
2017-06-09T07:30:56.846Z,13808
2017-06-09T07:40:56.833Z,13824
2017-06-09T07:50:56.870Z,8000
2017-06-09T08:00:56.900Z,12500
2017-06-09T08:10:56.858Z,14556
2017-06-09T08:20:56.832Z,14720
2017-06-09T08:30:56.912Z,13368
2017-06-09T08:40:56.856Z,13736
2017-06-09T08:50:56.861Z,19488
2017-06-09T09:00:56.862Z,13072
2017-06-09T09:10:56.951Z,11080
2017-06-09T09:20:56.867Z,15664
2017-06-09T09:30:56.882Z,8284
2017-06-09T09:40:56.878Z,6512
2017-06-09T09:50:56.860Z,10952
2017-06-09T10:00:56.881Z,6984
2017-06-09T10:10:56.880Z,8480
2017-06-09T10:20:56.874Z,13148
2017-06-09T10:30:56.894Z,4344
2017-06-09T10:40:56.887Z,3824
2017-06-09T10:50:56.874Z,3220
2017-06-09T11:00:56.866Z,4648
2017-06-09T11:10:56.915Z,5136
2017-06-09T11:20:56.864Z,6896
2017-06-09T11:30:56.866Z,6544
2017-06-09T11:40:57.042Z,3836
2017-06-09T11:50:56.993Z,2872
2017-06-09T12:00:57.067Z,14148
2017-06-09T12:10:57.061Z,12936
2017-06-09T12:20:56.947Z,11804
2017-06-09T12:30:56.890Z,23712
2017-06-09T12:40:56.887Z,12384
2017-06-09T12:50:56.898Z,12696
2017-06-09T13:00:56.916Z,14056
2017-06-09T13:10:56.893Z,24448
2017-06-09T13:20:56.905Z,10664
2017-06-09T13:30:56.887Z,20928
2017-06-09T13:40:56.898Z,8488
2017-06-09T13:50:56.908Z,5756
2017-06-09T14:00:56.895Z,7800
2017-06-09T14:10:56.946Z,8444
2017-06-09T14:20:56.916Z,8368
2017-06-09T14:30:56.998Z,7760
2017-06-09T14:40:56.887Z,7364
2017-06-09T14:50:56.922Z,7284
2017-06-09T15:00:56.883Z,4476
2017-06-09T15:10:56.899Z,4088
2017-06-09T15:20:56.914Z,5092
2017-06-09T15:30:56.895Z,3604
2017-06-09T15:40:56.930Z,3140
2017-06-09T15:50:56.906Z,3084
2017-06-09T16:00:56.914Z,3088
2017-06-09T16:11:07.329Z,3084
2017-06-09T16:20:56.983Z,3004
2017-06-09T16:30:56.956Z,2972
2017-06-09T16:40:57.060Z,2884
2017-06-09T16:50:57.848Z,2928
2017-06-09T17:00:57.635Z,2844
2017-06-09T17:10:57.151Z,2796
2017-06-09T17:20:57.076Z,2596
2017-06-09T17:30:57.239Z,2696
2017-06-09T17:40:57.301Z,2484
2017-06-09T17:50:57.064Z,2372
2017-06-09T18:00:57.207Z,2280
2017-06-09T18:10:57.017Z,2176
2017-06-09T18:20:57.127Z,2044
2017-06-09T18:30:57.092Z,1868
2017-06-09T18:40:57.070Z,1688
2017-06-09T18:50:57.043Z,1436
2017-06-09T19:00:57.311Z,1204
2017-06-09T19:10:57.051Z,952
2017-06-09T19:20:57.003Z,740
2017-06-09T19:30:57.176Z,496
2017-06-09T19:40:57.118Z,296
2017-06-09T19:50:57.164Z,152
2017-06-09T20:00:57.064Z,68
2017-06-09T20:10:56.976Z,28
2017-06-09T20:20:58.190Z,8
2017-06-09T20:30:57.093Z,4
2017-06-09T20:40:56.981Z,4
2017-06-09T20:50:57.094Z,4
2017-06-09T21:00:57.038Z,4
2017-06-09T21:10:57.067Z,4
2017-06-09T21:20:57.073Z,4
2017-06-09T21:30:56.956Z,4
2017-06-09T21:40:57.258Z,4
2017-06-09T21:50:56.998Z,0
2017-06-09T22:00:57.044Z,0
2017-06-09T22:10:57.004Z,0
2017-06-09T22:20:57.070Z,0
2017-06-09T22:30:57.055Z,0
2017-06-09T22:40:57.137Z,0
2017-06-09T22:50:57.010Z,0
2017-06-09T23:00:57.006Z,0
2017-06-09T23:10:57.060Z,0
2017-06-09T23:20:57.311Z,0
2017-06-09T23:30:57.017Z,0
2017-06-09T23:40:57.009Z,0
2017-06-09T23:50:57.042Z,0
